Time;durP1;ratioP1;P1;durP2;ratioP2;P2;SDS_P1;SDS_P2;PMS_P1;PMS_P2;Temp;Humidity;BMP_temperature;BMP_pressure;BME280_temperature;BME280_humidity;BME280_pressure;Samples;Min_cycle;Max_cycle;Signal;HPM_P1;HPM_P2
2023/07/26 00:00:20;;;;;;;20.13;15.13;;;11.50;67.30;;;;;;5133246;27;20019;-77
2023/07/26 00:02:45;;;;;;;20.60;14.07;;;11.60;66.70;;;;;;5135547;27;20019;-77
2023/07/26 00:05:11;;;;;;;24.70;16.88;;;11.60;66.60;;;;;;5117281;27;20027;-77
2023/07/26 00:07:36;;;;;;;23.48;16.50;;;11.60;66.30;;;;;;5135339;27;20340;-76
2023/07/26 00:10:02;;;;;;;29.60;15.70;;;11.60;65.80;;;;;;5133705;28;20030;-77
2023/07/26 00:12:28;;;;;;;22.17;16.15;;;11.60;66.00;;;;;;5135772;28;20041;-76
2023/07/26 00:14:53;;;;;;;25.85;17.58;;;11.60;65.60;;;;;;5133401;27;20031;-77
2023/07/26 00:17:19;;;;;;;22.42;16.45;;;11.60;65.80;;;;;;5132521;28;20028;-77
2023/07/26 00:19:45;;;;;;;16.85;12.48;;;11.60;65.30;;;;;;5112700;28;20023;-77
2023/07/26 00:22:12;;;;;;;21.95;14.18;;;11.60;65.10;;;;;;5132143;28;20019;-76
2023/07/26 00:24:38;;;;;;;24.30;16.17;;;11.70;64.70;;;;;;5115818;28;20019;-76
2023/07/26 00:27:04;;;;;;;20.30;14.70;;;11.70;65.50;;;;;;5148420;27;20100;-76
2023/07/26 00:29:30;;;;;;;23.27;16.65;;;11.70;64.70;;;;;;5110521;27;20849;-76
2023/07/26 00:31:55;;;;;;;22.17;15.00;;;11.70;65.10;;;;;;5128667;27;20096;-76
2023/07/26 00:34:21;;;;;;;24.25;16.55;;;11.70;64.70;;;;;;5130682;28;20031;-76
2023/07/26 00:36:47;;;;;;;23.83;16.08;;;11.70;65.30;;;;;;5132119;28;20039;-77
2023/07/26 00:39:13;;;;;;;21.30;15.88;;;11.70;64.50;;;;;;5132707;28;20101;-77
2023/07/26 00:41:38;;;;;;;20.65;15.32;;;11.70;64.50;;;;;;5135199;27;20028;-76
2023/07/26 00:44:04;;;;;;;25.52;17.08;;;11.70;64.70;;;;;;5133582;27;20094;-77
2023/07/26 00:46:30;;;;;;;21.88;15.30;;;11.70;64.80;;;;;;5125282;27;20051;-77
2023/07/26 00:48:57;;;;;;;23.27;17.25;;;11.70;64.40;;;;;;5138838;27;20057;-77
2023/07/26 00:51:23;;;;;;;26.85;19.10;;;11.80;64.30;;;;;;5136297;27;20431;-77
2023/07/26 00:53:49;;;;;;;28.92;18.20;;;11.80;65.30;;;;;;5138334;27;20300;-77
2023/07/26 00:56:15;;;;;;;26.27;19.75;;;11.70;64.40;;;;;;5129908;27;20035;-77
2023/07/26 00:58:41;;;;;;;21.95;16.77;;;11.70;64.70;;;;;;5138048;27;20043;-77
2023/07/26 01:01:06;;;;;;;27.13;20.55;;;11.70;64.40;;;;;;5139731;27;20031;-77
2023/07/26 01:03:32;;;;;;;27.80;20.33;;;11.70;64.90;;;;;;5120404;27;20045;-77
2023/07/26 01:06:12;;;;;;;29.98;22.20;;;11.60;65.20;;;;;;5120524;27;20296;-77
2023/07/26 01:09:03;;;;;;;30.90;21.17;;;11.60;64.40;;;;;;5101732;28;20028;-77
2023/07/26 01:11:53;;;;;;;34.17;21.08;;;11.60;64.20;;;;;;5126855;27;20092;-78
2023/07/26 01:14:32;;;;;;;28.88;20.60;;;11.60;63.90;;;;;;5137049;27;20038;-77
2023/07/26 01:16:59;;;;;;;31.70;22.92;;;11.60;64.00;;;;;;5139596;27;20019;-77
2023/07/26 01:19:24;;;;;;;33.20;23.08;;;11.60;64.10;;;;;;5121690;27;20035;-77
2023/07/26 01:21:50;;;;;;;36.45;24.88;;;11.60;63.50;;;;;;5137563;27;20064;-77
2023/07/26 01:24:15;;;;;;;31.48;22.40;;;11.70;63.70;;;;;;5123894;27;20023;-78
2023/07/26 01:26:41;;;;;;;30.05;22.15;;;11.60;63.20;;;;;;5138976;27;20023;-77
2023/07/26 01:29:06;;;;;;;39.03;25.55;;;11.60;63.30;;;;;;5137845;27;20035;-78
2023/07/26 01:31:33;;;;;;;41.00;26.45;;;11.70;63.00;;;;;;5137493;27;20075;-78
2023/07/26 01:34:00;;;;;;;36.05;25.95;;;11.60;63.20;;;;;;5137297;27;20035;-77
2023/07/26 01:36:29;;;;;;;39.58;25.15;;;11.60;63.30;;;;;;5135442;27;20058;-78
2023/07/26 01:38:56;;;;;;;35.50;24.65;;;11.60;63.20;;;;;;5134660;27;20051;-78
2023/07/26 01:41:23;;;;;;;33.33;23.08;;;11.50;62.90;;;;;;5137520;27;20034;-77
2023/07/26 01:43:48;;;;;;;31.75;21.17;;;11.40;63.50;;;;;;5107179;28;20054;-78
2023/07/26 01:46:14;;;;;;;35.15;24.65;;;11.50;62.80;;;;;;5133963;27;20055;-78
2023/07/26 01:48:41;;;;;;;30.17;21.83;;;11.40;63.30;;;;;;5132555;27;20054;-79
2023/07/26 01:51:07;;;;;;;31.90;22.45;;;11.40;63.30;;;;;;5113794;27;20073;-77
2023/07/26 01:53:33;;;;;;;45.08;25.65;;;11.40;63.30;;;;;;5125969;27;20031;-77
2023/07/26 01:56:02;;;;;;;50.17;26.75;;;11.40;63.00;;;;;;5115824;28;20535;-77
2023/07/26 01:58:28;;;;;;;38.38;22.55;;;11.40;62.80;;;;;;5117392;27;20080;-77
2023/07/26 02:00:54;;;;;;;28.23;21.08;;;11.50;62.50;;;;;;5120703;27;20047;-77
2023/07/26 02:03:20;;;;;;;22.90;16.88;;;11.40;63.50;;;;;;5117291;27;20030;-77
2023/07/26 02:05:46;;;;;;;24.90;17.33;;;11.20;63.80;;;;;;5122379;27;20038;-79
2023/07/26 02:08:13;;;;;;;15.38;11.73;;;11.10;64.40;;;;;;5119216;27;20065;-79
2023/07/26 02:10:40;;;;;;;18.35;11.52;;;11.00;64.30;;;;;;5120974;27;20118;-79
2023/07/26 02:13:05;;;;;;;14.73;11.55;;;10.90;65.90;;;;;;5116335;27;20026;-80
2023/07/26 02:15:34;;;;;;;13.77;10.27;;;10.70;67.20;;;;;;5123501;27;20057;-79
2023/07/26 02:18:00;;;;;;;17.95;10.95;;;10.60;66.50;;;;;;5115071;27;20019;-84
2023/07/26 02:20:25;;;;;;;13.75;8.57;;;10.60;67.20;;;;;;5114187;27;20122;-80
2023/07/26 02:22:51;;;;;;;15.18;10.15;;;10.60;67.70;;;;;;5121945;27;20034;-78
2023/07/26 02:25:17;;;;;;;9.80;7.20;;;10.60;66.80;;;;;;5117464;27;20033;-78
2023/07/26 02:27:43;;;;;;;13.43;8.82;;;10.60;67.70;;;;;;5117611;27;20106;-79
2023/07/26 02:30:09;;;;;;;12.18;7.93;;;10.70;67.70;;;;;;5119201;27;20059;-79
2023/07/26 02:32:34;;;;;;;10.52;7.50;;;10.70;67.90;;;;;;5113289;27;20031;-78
2023/07/26 02:35:00;;;;;;;10.02;7.10;;;10.80;67.90;;;;;;5113356;27;20843;-77
2023/07/26 02:37:25;;;;;;;10.10;7.75;;;10.80;69.40;;;;;;5118674;27;20058;-77
2023/07/26 02:39:51;;;;;;;10.55;7.78;;;10.80;70.20;;;;;;5120444;27;20039;-78
2023/07/26 02:42:17;;;;;;;10.90;6.53;;;10.80;70.30;;;;;;5114615;27;20020;-80
2023/07/26 02:44:44;;;;;;;7.97;6.57;;;10.80;70.40;;;;;;5120456;27;20316;-79
2023/07/26 02:47:10;;;;;;;10.88;7.78;;;10.90;71.20;;;;;;5116573;27;20027;-79
2023/07/26 02:49:35;;;;;;;10.57;7.97;;;10.90;72.30;;;;;;5118483;27;20070;-79
2023/07/26 02:52:01;;;;;;;8.52;6.68;;;10.80;71.90;;;;;;5117986;27;20171;-78
2023/07/26 02:54:27;;;;;;;8.52;5.95;;;10.80;70.90;;;;;;5117646;27;20023;-79
2023/07/26 02:56:52;;;;;;;8.75;5.40;;;10.90;71.40;;;;;;5119565;27;20019;-77
2023/07/26 02:59:18;;;;;;;7.78;5.60;;;10.90;71.50;;;;;;5118568;27;20115;-79
2023/07/26 03:01:44;;;;;;;8.98;5.72;;;10.90;72.40;;;;;;5113780;27;20343;-79
2023/07/26 03:04:13;;;;;;;9.73;5.90;;;10.90;72.30;;;;;;5126420;27;20060;-79
2023/07/26 03:06:40;;;;;;;10.52;6.28;;;10.90;72.60;;;;;;5124389;27;20034;-79
2023/07/26 03:09:06;;;;;;;8.82;6.70;;;10.80;74.50;;;;;;5123621;27;20036;-79
2023/07/26 03:11:31;;;;;;;8.30;6.03;;;10.70;73.30;;;;;;5136435;27;20080;-79
2023/07/26 03:13:57;;;;;;;12.18;6.65;;;10.80;72.80;;;;;;5125982;27;20065;-77
2023/07/26 03:16:23;;;;;;;9.90;7.18;;;10.70;73.00;;;;;;5120714;27;20419;-79
2023/07/26 03:18:48;;;;;;;9.07;6.22;;;10.70;72.40;;;;;;5111645;28;20063;-79
2023/07/26 03:21:14;;;;;;;9.40;7.22;;;10.70;71.10;;;;;;5119351;27;20415;-79
2023/07/26 03:23:39;;;;;;;11.02;7.20;;;10.80;71.30;;;;;;5117969;27;20027;-79
2023/07/26 03:26:05;;;;;;;8.98;6.85;;;10.90;70.70;;;;;;5109715;28;20023;-78
2023/07/26 03:28:31;;;;;;;13.60;8.95;;;11.00;72.40;;;;;;5128121;27;20038;-79
2023/07/26 03:30:56;;;;;;;12.52;10.13;;;10.80;72.80;;;;;;5123125;27;20499;-79
2023/07/26 03:33:22;;;;;;;15.35;11.57;;;10.80;71.30;;;;;;5121166;27;20122;-79
2023/07/26 03:35:47;;;;;;;19.38;14.27;;;10.80;70.70;;;;;;5122099;27;20487;-78
2023/07/26 03:38:13;;;;;;;13.00;8.40;;;10.90;69.30;;;;;;5113958;28;20049;-79
2023/07/26 03:40:40;;;;;;;18.60;11.73;;;10.90;69.30;;;;;;5120322;27;20098;-79
2023/07/26 03:43:06;;;;;;;11.13;7.72;;;11.00;69.30;;;;;;5110405;27;20139;-79
2023/07/26 03:45:32;;;;;;;15.27;11.30;;;11.00;68.70;;;;;;5116029;27;20026;-79
2023/07/26 03:47:57;;;;;;;20.80;15.52;;;11.00;69.60;;;;;;5129695;27;20103;-79
2023/07/26 03:50:23;;;;;;;22.48;16.40;;;11.00;70.20;;;;;;5126198;27;20027;-79
2023/07/26 03:52:49;;;;;;;19.05;13.80;;;10.90;68.90;;;;;;5126575;27;20375;-77
2023/07/26 03:55:17;;;;;;;21.52;15.63;;;11.00;68.00;;;;;;5124011;27;20027;-78
2023/07/26 03:57:43;;;;;;;24.52;16.90;;;11.10;68.50;;;;;;5134635;27;20046;-78
2023/07/26 04:00:09;;;;;;;28.70;20.20;;;11.10;69.40;;;;;;5129229;27;20023;-78
2023/07/26 04:02:35;;;;;;;24.65;19.48;;;11.00;69.10;;;;;;5114172;28;20038;-80
2023/07/26 04:05:00;;;;;;;26.88;18.73;;;11.00;68.10;;;;;;5125895;27;20019;-79
2023/07/26 04:07:27;;;;;;;26.75;20.67;;;11.00;68.30;;;;;;5134538;27;20027;-79
2023/07/26 04:09:52;;;;;;;28.50;19.33;;;11.00;68.20;;;;;;5131872;28;20094;-79
2023/07/26 04:12:18;;;;;;;33.47;20.90;;;11.00;68.50;;;;;;5133859;28;20106;-78
2023/07/26 04:14:44;;;;;;;24.80;18.27;;;11.10;67.40;;;;;;5133899;28;20168;-80
2023/07/26 04:17:10;;;;;;;28.90;20.13;;;11.10;67.40;;;;;;5133669;28;20308;-79
2023/07/26 04:19:35;;;;;;;23.38;16.65;;;11.10;66.80;;;;;;5134922;27;20311;-79
2023/07/26 04:22:01;;;;;;;26.83;20.30;;;11.10;66.50;;;;;;5136440;27;20358;-79
2023/07/26 04:24:27;;;;;;;27.38;20.20;;;11.10;66.20;;;;;;5135479;27;20455;-79
2023/07/26 04:26:52;;;;;;;26.13;20.20;;;11.10;66.50;;;;;;5124295;27;20023;-79
2023/07/26 04:29:18;;;;;;;29.48;20.75;;;11.10;67.00;;;;;;5139881;27;20104;-79
2023/07/26 04:31:44;;;;;;;23.80;18.33;;;11.10;67.80;;;;;;5137818;27;20320;-79
2023/07/26 04:34:10;;;;;;;21.80;15.52;;;11.10;67.10;;;;;;5122838;27;20059;-79
2023/07/26 04:36:35;;;;;;;22.23;16.95;;;11.10;68.10;;;;;;5138594;27;20031;-80
2023/07/26 04:39:01;;;;;;;21.23;16.15;;;11.10;69.70;;;;;;5136892;27;20036;-80
2023/07/26 04:41:26;;;;;;;25.73;17.17;;;11.10;69.50;;;;;;5137941;27;20027;-79
2023/07/26 04:43:52;;;;;;;23.25;17.35;;;11.10;70.80;;;;;;5138015;27;20125;-80
2023/07/26 04:46:17;;;;;;;17.98;15.05;;;11.10;71.60;;;;;;5134156;27;20024;-79
2023/07/26 04:48:43;;;;;;;22.77;16.45;;;11.10;72.80;;;;;;5136397;27;20120;-79
2023/07/26 04:51:10;;;;;;;22.63;14.95;;;11.00;72.50;;;;;;5136157;27;20084;-80
2023/07/26 04:53:36;;;;;;;19.20;13.80;;;11.10;72.10;;;;;;5138071;27;20106;-80
2023/07/26 04:56:01;;;;;;;18.48;13.38;;;11.10;73.00;;;;;;5138069;27;20487;-79
2023/07/26 04:58:27;;;;;;;22.48;14.45;;;11.10;77.70;;;;;;5136585;27;20437;-80
2023/07/26 05:00:52;;;;;;;19.67;13.25;;;11.10;77.80;;;;;;5135078;27;20027;-80
2023/07/26 05:03:18;;;;;;;19.92;14.43;;;11.20;78.00;;;;;;5120714;27;20131;-80
2023/07/26 05:05:49;;;;;;;17.77;11.23;;;11.30;79.90;;;;;;5136543;27;20106;-80
2023/07/26 05:08:15;;;;;;;16.08;11.60;;;11.30;81.90;;;;;;5134201;27;20415;-80
2023/07/26 05:10:40;;;;;;;18.73;12.55;;;11.30;84.50;;;;;;5111748;28;20024;-81
2023/07/26 05:13:06;;;;;;;17.20;12.23;;;11.20;82.90;;;;;;5127540;27;20027;-81
2023/07/26 05:15:31;;;;;;;20.42;14.13;;;11.30;81.90;;;;;;5130953;27;20307;-81
2023/07/26 05:17:57;;;;;;;14.10;12.40;;;11.40;81.60;;;;;;5134344;27;20052;-81
2023/07/26 05:20:23;;;;;;;19.98;13.95;;;11.40;82.50;;;;;;5121953;27;20091;-80
2023/07/26 05:22:51;;;;;;;16.70;10.95;;;11.60;82.20;;;;;;5117062;27;20034;-81
2023/07/26 05:25:18;;;;;;;18.13;11.20;;;11.60;84.40;;;;;;5136469;27;20031;-81
2023/07/26 05:27:44;;;;;;;20.30;11.90;;;11.80;84.20;;;;;;5127160;27;20015;-81
2023/07/26 05:30:10;;;;;;;13.13;8.85;;;11.80;87.10;;;;;;5137945;27;20031;-82
2023/07/26 05:32:35;;;;;;;15.40;10.38;;;11.60;90.20;;;;;;5126058;27;20054;-81
2023/07/26 05:35:02;;;;;;;17.33;11.43;;;11.60;89.30;;;;;;5138771;27;20505;-82
2023/07/26 05:37:30;;;;;;;15.70;11.10;;;11.70;88.50;;;;;;5109391;28;20038;-81
2023/07/26 05:39:56;;;;;;;15.68;8.20;;;11.80;89.10;;;;;;5138240;27;20019;-82
2023/07/26 05:42:21;;;;;;;17.98;9.80;;;11.90;90.60;;;;;;5138849;27;20293;-81
2023/07/26 05:44:47;;;;;;;16.55;8.23;;;11.90;91.70;;;;;;5136231;27;20023;-81
2023/07/26 05:47:14;;;;;;;13.00;7.80;;;11.70;92.50;;;;;;5136753;27;20466;-82
2023/07/26 05:49:43;;;;;;;11.20;7.88;;;11.70;92.80;;;;;;5132293;27;20047;-81
2023/07/26 05:52:10;;;;;;;12.77;8.05;;;11.60;91.90;;;;;;5118308;27;20023;-80
2023/07/26 05:54:35;;;;;;;12.30;8.40;;;11.60;91.50;;;;;;5117136;27;20027;-81
2023/07/26 05:57:01;;;;;;;9.43;7.55;;;11.60;91.60;;;;;;5136143;27;20035;-80
2023/07/26 05:59:27;;;;;;;12.05;8.02;;;11.60;91.90;;;;;;5131393;27;20028;-83
2023/07/26 06:01:52;;;;;;;11.95;7.80;;;11.70;90.90;;;;;;5118686;28;20074;-82
2023/07/26 06:04:18;;;;;;;13.38;7.95;;;11.80;92.70;;;;;;5128275;27;20115;-82
2023/07/26 06:06:44;;;;;;;20.52;8.77;;;11.80;92.30;;;;;;5137847;27;20292;-82
2023/07/26 06:09:09;;;;;;;10.40;7.68;;;11.80;91.40;;;;;;5119575;27;20059;-82
2023/07/26 06:11:35;;;;;;;9.77;7.47;;;11.70;92.30;;;;;;5103623;28;20173;-82
2023/07/26 06:14:01;;;;;;;12.70;8.02;;;11.60;92.70;;;;;;5120579;27;20077;-82
2023/07/26 06:16:27;;;;;;;14.82;8.80;;;11.50;92.40;;;;;;5138029;27;20070;-82
2023/07/26 06:18:53;;;;;;;11.65;8.70;;;11.60;91.40;;;;;;5125928;27;20030;-83
2023/07/26 06:21:19;;;;;;;13.68;9.10;;;11.60;91.40;;;;;;5133241;27;20031;-82
2023/07/26 06:23:45;;;;;;;12.30;8.13;;;11.50;92.20;;;;;;5136457;27;20038;-82
2023/07/26 06:26:11;;;;;;;12.65;8.20;;;11.50;91.90;;;;;;5136096;27;20023;-82
2023/07/26 06:28:37;;;;;;;12.05;8.20;;;11.60;91.80;;;;;;5136784;27;20035;-82
2023/07/26 06:31:03;;;;;;;11.25;8.30;;;11.60;90.20;;;;;;5119676;27;20027;-83
2023/07/26 06:33:28;;;;;;;9.40;7.15;;;11.80;91.50;;;;;;5120450;27;20019;-82
2023/07/26 06:35:54;;;;;;;12.35;7.97;;;12.00;91.50;;;;;;5137456;27;20038;-83
2023/07/26 06:38:20;;;;;;;11.43;6.30;;;12.00;94.30;;;;;;5125020;27;20144;-83
2023/07/26 06:40:47;;;;;;;10.18;6.15;;;12.30;93.60;;;;;;5137254;27;20052;-82
2023/07/26 06:43:12;;;;;;;11.40;6.50;;;12.40;96.90;;;;;;5117934;27;20068;-82
2023/07/26 06:45:38;;;;;;;9.02;5.80;;;12.50;97.90;;;;;;5138472;27;20027;-83
2023/07/26 06:48:04;;;;;;;9.43;5.07;;;12.90;97.70;;;;;;5105729;28;20065;-82
2023/07/26 06:50:29;;;;;;;9.50;4.28;;;13.40;98.00;;;;;;5117829;27;20020;-82
2023/07/26 06:52:55;;;;;;;9.18;4.80;;;13.70;98.00;;;;;;5130155;27;20483;-82
2023/07/26 06:55:20;;;;;;;11.25;4.60;;;14.20;98.00;;;;;;5118499;27;20494;-82
2023/07/26 06:57:46;;;;;;;8.20;4.95;;;14.40;98.00;;;;;;5137442;27;20438;-82
2023/07/26 07:00:14;;;;;;;8.57;5.15;;;14.60;98.00;;;;;;5138139;27;20027;-81
2023/07/26 07:02:40;;;;;;;8.25;4.35;;;14.60;98.00;;;;;;5120733;27;20312;-82
2023/07/26 07:05:06;;;;;;;9.48;4.70;;;14.50;98.00;;;;;;5129983;27;20035;-81
2023/07/26 07:07:31;;;;;;;11.00;5.03;;;14.00;98.00;;;;;;5129986;27;20096;-81
2023/07/26 07:09:57;;;;;;;10.88;4.90;;;14.00;98.00;;;;;;5129073;27;20428;-81
2023/07/26 07:12:23;;;;;;;8.65;4.88;;;13.90;98.00;;;;;;5125810;27;20312;-82
2023/07/26 07:14:48;;;;;;;8.05;4.65;;;14.10;98.00;;;;;;5136053;27;20054;-82
2023/07/26 07:17:14;;;;;;;7.10;4.90;;;14.00;98.00;;;;;;5120414;27;20054;-81
2023/07/26 07:19:39;;;;;;;11.82;5.40;;;14.00;98.00;;;;;;5127919;27;20072;-81
2023/07/26 07:22:05;;;;;;;9.00;5.28;;;13.80;98.00;;;;;;5135199;27;20029;-81
2023/07/26 07:24:32;;;;;;;8.95;5.32;;;13.70;98.00;;;;;;5136361;27;20411;-81
2023/07/26 07:26:59;;;;;;;11.50;5.30;;;13.60;98.00;;;;;;5103955;28;20028;-81
2023/07/26 07:29:24;;;;;;;15.68;6.15;;;13.50;98.00;;;;;;5112694;27;20027;-81
2023/07/26 07:31:50;;;;;;;8.68;5.20;;;13.60;98.00;;;;;;5125210;27;20055;-81
2023/07/26 07:34:15;;;;;;;11.88;5.30;;;13.80;98.00;;;;;;5116914;28;20039;-81
2023/07/26 07:36:41;;;;;;;9.10;4.80;;;14.10;98.00;;;;;;5121631;27;20026;-81
2023/07/26 07:39:09;;;;;;;11.05;5.68;;;14.40;98.00;;;;;;5136194;27;20034;-82
2023/07/26 07:41:36;;;;;;;9.30;5.32;;;14.60;98.00;;;;;;5135693;27;20071;-81
2023/07/26 07:44:01;;;;;;;8.93;5.50;;;14.20;98.00;;;;;;5127932;27;20361;-82
2023/07/26 07:46:28;;;;;;;11.82;5.80;;;14.00;98.00;;;;;;5132171;27;20023;-81
2023/07/26 07:48:55;;;;;;;8.80;5.07;;;14.00;98.00;;;;;;5134013;27;20094;-82
2023/07/26 07:51:20;;;;;;;7.18;5.00;;;13.60;98.00;;;;;;5114603;27;20035;-82
2023/07/26 07:53:48;;;;;;;11.38;5.50;;;13.70;98.00;;;;;;5135854;27;20034;-81
2023/07/26 07:56:13;;;;;;;9.40;4.93;;;13.70;98.00;;;;;;5136141;27;20032;-82
2023/07/26 07:58:39;;;;;;;10.45;5.55;;;13.50;98.00;;;;;;5136382;27;20035;-82
2023/07/26 08:01:04;;;;;;;9.38;6.13;;;13.40;98.00;;;;;;5135957;27;20415;-82
2023/07/26 08:03:31;;;;;;;10.10;6.22;;;13.20;98.00;;;;;;5136908;27;20054;-82
2023/07/26 08:05:56;;;;;;;9.80;6.22;;;13.00;98.00;;;;;;5121958;27;20068;-82
2023/07/26 08:08:22;;;;;;;11.07;6.80;;;12.80;97.70;;;;;;5136929;27;20031;-83
2023/07/26 08:10:48;;;;;;;12.75;6.97;;;12.60;97.40;;;;;;5136879;27;20022;-82
2023/07/26 08:13:17;;;;;;;11.65;8.50;;;12.50;96.90;;;;;;5118761;28;20023;-82
2023/07/26 08:15:43;;;;;;;12.90;7.85;;;12.40;94.50;;;;;;5136175;27;20031;-81
2023/07/26 08:18:08;;;;;;;13.77;9.25;;;12.40;92.70;;;;;;5136799;28;20031;-82
2023/07/26 08:20:35;;;;;;;14.55;9.77;;;12.30;91.20;;;;;;5135674;28;20023;-81
2023/07/26 08:23:04;;;;;;;17.75;10.75;;;12.20;89.90;;;;;;5119446;28;20019;-81
2023/07/26 08:25:30;;;;;;;14.18;9.88;;;12.20;87.50;;;;;;5134899;27;20051;-81
2023/07/26 08:27:56;;;;;;;14.32;11.02;;;12.20;85.80;;;;;;5136055;27;20086;-81
2023/07/26 08:30:21;;;;;;;15.55;9.98;;;12.20;84.50;;;;;;5136759;28;20404;-81
2023/07/26 08:32:47;;;;;;;20.48;11.32;;;12.30;85.20;;;;;;5117814;28;20028;-81
2023/07/26 08:35:13;;;;;;;16.50;11.45;;;12.40;83.60;;;;;;5135656;28;20475;-81
2023/07/26 08:37:38;;;;;;;19.20;13.20;;;12.60;84.60;;;;;;5136662;28;20030;-81
2023/07/26 08:40:05;;;;;;;16.83;9.70;;;12.80;83.70;;;;;;5136386;28;20019;-81
2023/07/26 08:42:31;;;;;;;12.70;8.50;;;13.20;86.70;;;;;;5135311;27;20031;-81
2023/07/26 08:44:58;;;;;;;16.50;9.00;;;13.40;88.90;;;;;;5136617;28;20027;-80
2023/07/26 08:47:24;;;;;;;12.80;8.50;;;13.70;95.20;;;;;;5136658;27;20015;-80
2023/07/26 08:49:50;;;;;;;10.63;7.72;;;13.80;93.20;;;;;;5135320;27;20064;-81
2023/07/26 08:52:17;;;;;;;13.13;9.85;;;13.80;94.10;;;;;;5134533;28;20101;-81
2023/07/26 08:54:47;;;;;;;11.30;8.57;;;13.80;94.20;;;;;;5134577;28;20023;-83
2023/07/26 08:57:14;;;;;;;15.63;10.13;;;13.60;94.20;;;;;;5135667;27;20038;-82
2023/07/26 08:59:39;;;;;;;12.32;9.23;;;13.60;91.70;;;;;;5136286;28;20079;-83
2023/07/26 09:02:06;;;;;;;11.98;8.00;;;13.30;93.40;;;;;;5135988;28;20027;-81
2023/07/26 09:04:32;;;;;;;10.75;8.00;;;13.10;93.60;;;;;;5135224;28;20023;-82
2023/07/26 09:07:05;;;;;;;11.35;8.20;;;12.90;94.40;;;;;;5137108;27;20047;-82
2023/07/26 09:09:32;;;;;;;11.65;7.50;;;12.90;91.20;;;;;;5140334;27;20030;-82
2023/07/26 09:11:58;;;;;;;11.35;7.65;;;13.10;91.40;;;;;;5136914;27;20019;-82
2023/07/26 09:14:28;;;;;;;14.40;9.57;;;13.00;95.90;;;;;;5139430;27;20373;-84
2023/07/26 09:16:59;;;;;;;11.88;9.48;;;12.60;93.10;;;;;;5138154;27;20052;-80
2023/07/26 09:19:29;;;;;;;14.93;9.82;;;12.30;88.70;;;;;;5119494;28;20019;-79
2023/07/26 09:22:03;;;;;;;11.30;8.32;;;12.20;87.70;;;;;;5120462;27;20324;-80
2023/07/26 09:24:37;;;;;;;9.93;7.20;;;12.10;87.10;;;;;;5139356;27;20024;-79
2023/07/26 09:27:06;;;;;;;15.30;9.02;;;12.00;86.00;;;;;;5125236;27;20072;-80
2023/07/26 09:29:33;;;;;;;11.80;9.60;;;12.00;86.10;;;;;;5131086;27;20035;-79
2023/07/26 09:31:59;;;;;;;13.75;9.48;;;11.90;83.20;;;;;;5137852;27;20374;-80
2023/07/26 09:34:25;;;;;;;9.43;6.60;;;12.00;82.40;;;;;;5136982;27;20024;-79
2023/07/26 09:36:52;;;;;;;7.93;6.25;;;12.50;82.80;;;;;;5135222;27;20031;-79
2023/07/26 09:39:19;;;;;;;6.53;3.85;;;13.50;82.30;;;;;;5139667;27;20415;-79
2023/07/26 09:41:45;;;;;;;5.18;2.50;;;14.10;93.10;;;;;;5136505;27;20133;-77
2023/07/26 09:44:16;;;;;;;6.10;3.50;;;13.90;98.00;;;;;;5130461;27;20019;-78
2023/07/26 09:46:54;;;;;;;10.25;6.40;;;13.80;98.00;;;;;;5112533;27;20028;-79
2023/07/26 09:49:24;;;;;;;8.32;5.35;;;13.40;95.00;;;;;;5118963;28;20336;-79
2023/07/26 09:51:54;;;;;;;4.55;2.75;;;12.90;94.00;;;;;;5104591;27;20108;-79
2023/07/26 09:54:27;;;;;;;5.60;2.72;;;12.40;97.40;;;;;;5137280;27;20027;-79
2023/07/26 09:56:55;;;;;;;7.10;3.58;;;12.20;93.00;;;;;;5132289;27;20034;-79
2023/07/26 09:59:23;;;;;;;5.72;4.15;;;12.50;90.50;;;;;;5127535;27;20042;-79
2023/07/26 10:01:51;;;;;;;5.63;3.70;;;12.70;91.30;;;;;;5139018;27;20091;-79
2023/07/26 10:04:42;;;;;;;5.25;3.05;;;12.80;92.20;;;;;;5134676;27;20019;-79
2023/07/26 10:07:11;;;;;;;5.68;2.90;;;13.00;91.60;;;;;;5136750;27;20023;-79
2023/07/26 10:09:43;;;;;;;4.15;2.80;;;13.00;94.80;;;;;;5133857;27;20315;-79
2023/07/26 10:12:09;;;;;;;4.63;2.80;;;13.10;93.70;;;;;;5112551;27;20023;-78
2023/07/26 10:14:35;;;;;;;4.15;2.30;;;13.80;89.10;;;;;;5105440;28;20112;-80
2023/07/26 10:17:02;;;;;;;4.18;2.50;;;15.40;98.00;;;;;;5126026;27;20313;-79
2023/07/26 10:19:29;;;;;;;3.97;2.00;;;16.70;98.00;;;;;;5122286;27;20019;-80
2023/07/26 10:21:56;;;;;;;3.97;1.90;;;18.00;98.00;;;;;;5137711;27;20030;-81
2023/07/26 10:24:23;;;;;;;3.88;2.00;;;19.30;95.60;;;;;;5122196;27;20296;-80
2023/07/26 10:26:49;;;;;;;4.53;2.28;;;20.50;90.30;;;;;;5124341;27;20411;-80
2023/07/26 10:29:16;;;;;;;3.35;1.80;;;19.90;87.40;;;;;;5128946;27;20074;-80
2023/07/26 10:31:42;;;;;;;5.00;2.33;;;19.20;87.30;;;;;;5134496;27;20162;-80
2023/07/26 10:34:09;;;;;;;6.05;2.72;;;17.80;90.10;;;;;;5137656;27;20056;-82
2023/07/26 10:36:36;;;;;;;8.18;3.72;;;16.50;94.60;;;;;;5137613;27;20411;-79
2023/07/26 10:39:07;;;;;;;10.02;4.13;;;15.00;97.50;;;;;;5137750;27;20034;-81
2023/07/26 10:41:34;;;;;;;12.52;5.43;;;13.90;96.90;;;;;;5118644;27;20030;-80
2023/07/26 10:44:05;;;;;;;33.58;6.68;;;13.10;93.10;;;;;;5137773;27;20042;-79
2023/07/26 10:47:00;;;;;;;6.85;4.63;;;12.50;92.10;;;;;;5137630;27;20034;-80
2023/07/26 10:49:28;;;;;;;9.88;5.88;;;11.90;86.40;;;;;;5137482;27;20047;-78
2023/07/26 10:52:00;;;;;;;8.40;4.50;;;11.70;82.40;;;;;;5135349;27;20106;-79
2023/07/26 10:54:34;;;;;;;8.43;4.07;;;11.40;85.80;;;;;;5137198;27;20030;-79
2023/07/26 10:57:21;;;;;;;7.90;4.50;;;11.30;84.80;;;;;;5136683;27;20384;-78
2023/07/26 11:00:16;;;;;;;12.38;6.15;;;11.10;86.20;;;;;;5137441;27;20035;-78
2023/07/26 11:02:50;;;;;;;11.45;6.90;;;11.00;82.60;;;;;;5135712;27;20431;-78
2023/07/26 11:05:21;;;;;;;10.98;6.45;;;11.00;76.60;;;;;;5136024;27;20292;-78
2023/07/26 11:08:03;;;;;;;9.07;5.65;;;11.20;76.50;;;;;;5137102;27;20027;-77
2023/07/26 11:10:32;;;;;;;9.75;5.30;;;11.30;77.10;;;;;;5135754;27;20019;-78
2023/07/26 11:13:18;;;;;;;7.82;4.63;;;11.60;79.70;;;;;;5123049;27;20023;-79
2023/07/26 11:15:46;;;;;;;6.50;3.80;;;12.10;75.30;;;;;;5135512;27;20034;-79
2023/07/26 11:18:14;;;;;;;6.70;3.08;;;12.70;82.10;;;;;;5132878;27;20061;-79
2023/07/26 11:20:45;;;;;;;6.00;2.65;;;13.20;90.80;;;;;;5118395;27;20396;-78
2023/07/26 11:23:24;;;;;;;4.82;2.55;;;13.40;94.60;;;;;;5135600;27;20027;-78
2023/07/26 11:25:52;;;;;;;4.78;2.40;;;13.80;96.10;;;;;;5118342;27;20058;-79
2023/07/26 11:28:18;;;;;;;6.93;2.60;;;14.00;97.90;;;;;;5135951;27;20020;-78
2023/07/26 11:30:54;;;;;;;5.15;2.30;;;14.10;98.00;;;;;;5116795;27;20503;-79
2023/07/26 11:33:25;;;;;;;4.47;2.22;;;14.10;98.00;;;;;;5118095;27;20026;-79
2023/07/26 11:35:51;;;;;;;4.57;2.40;;;14.20;98.00;;;;;;5127818;27;20016;-79
2023/07/26 11:38:16;;;;;;;3.78;2.13;;;14.00;97.90;;;;;;5135536;27;20027;-78
2023/07/26 11:40:43;;;;;;;5.75;2.70;;;14.00;98.00;;;;;;5136079;27;20035;-77
2023/07/26 11:43:10;;;;;;;3.88;1.80;;;14.00;98.00;;;;;;5120494;27;20039;-78
2023/07/26 11:45:37;;;;;;;3.58;2.00;;;13.90;98.00;;;;;;5136703;27;20095;-77
2023/07/26 11:48:04;;;;;;;4.75;2.45;;;14.10;98.00;;;;;;5136515;27;20026;-79
2023/07/26 11:50:30;;;;;;;4.13;1.70;;;14.20;98.00;;;;;;5132412;27;20057;-80
2023/07/26 11:53:06;;;;;;;5.88;1.60;;;13.80;98.00;;;;;;5134730;27;20131;-79
2023/07/26 11:55:33;;;;;;;4.22;1.60;;;13.40;98.00;;;;;;5131265;27;20106;-79
2023/07/26 11:58:08;;;;;;;3.20;1.50;;;13.30;98.00;;;;;;5135852;27;20019;-79
2023/07/26 12:00:36;;;;;;;5.32;1.25;;;13.40;98.00;;;;;;5135829;27;20065;-79
2023/07/26 12:03:04;;;;;;;3.65;1.60;;;14.10;98.00;;;;;;5136583;27;20023;-80
2023/07/26 12:05:30;;;;;;;3.05;1.40;;;14.90;97.10;;;;;;5133867;27;20031;-80
2023/07/26 12:08:01;;;;;;;3.30;1.20;;;15.40;96.10;;;;;;5131759;27;20611;-80
2023/07/26 12:10:42;;;;;;;3.95;1.50;;;15.50;95.90;;;;;;5134580;27;20168;-80
2023/07/26 12:13:32;;;;;;;5.70;1.70;;;15.50;94.10;;;;;;5117895;28;20042;-80
2023/07/26 12:16:02;;;;;;;3.85;1.80;;;15.50;95.00;;;;;;5110136;28;20701;-80
2023/07/26 12:18:28;;;;;;;3.03;1.40;;;15.90;93.50;;;;;;5117008;28;20031;-81
2023/07/26 12:21:02;;;;;;;3.65;1.70;;;16.30;93.40;;;;;;5134924;28;20346;-80
2023/07/26 12:23:49;;;;;;;3.80;1.70;;;16.30;91.60;;;;;;5136181;28;20023;-79
2023/07/26 12:26:15;;;;;;;3.72;1.83;;;16.10;92.80;;;;;;5135942;28;20325;-80
2023/07/26 12:28:42;;;;;;;4.00;1.80;;;16.00;92.20;;;;;;5131484;27;20035;-80
2023/07/26 12:31:15;;;;;;;4.32;1.88;;;15.90;92.10;;;;;;5127354;27;20027;-80
2023/07/26 12:33:56;;;;;;;4.18;1.88;;;15.90;93.10;;;;;;5133574;27;20033;-80
2023/07/26 12:36:25;;;;;;;4.32;1.90;;;15.80;90.80;;;;;;5114307;28;20372;-80